Time;durP1;ratioP1;P1;durP2;ratioP2;P2;SDS_P1;SDS_P2;PMS_P1;PMS_P2;Temp;Humidity;BMP_temperature;BMP_pressure;BME280_temperature;BME280_humidity;BME280_pressure;Samples;Min_cycle;Max_cycle;Signal;HPM_P1;HPM_P2
2024/03/16 00:00:17;;;;;;;12.20;2.83;;;9.30;99.90;;;;;;5007323;28;20424;-68
2024/03/16 00:02:44;;;;;;;3.75;1.38;;;9.30;99.90;;;;;;5006011;28;20096;-65
2024/03/16 00:05:11;;;;;;;6.93;3.40;;;9.20;99.90;;;;;;5008730;28;20395;-67
2024/03/16 00:07:38;;;;;;;6.00;1.85;;;9.20;99.90;;;;;;5009609;28;20046;-66
2024/03/16 00:10:06;;;;;;;7.43;1.60;;;9.20;99.90;;;;;;5008478;28;20105;-67
2024/03/16 00:12:34;;;;;;;6.40;2.25;;;9.20;99.90;;;;;;5010662;28;20133;-66
2024/03/16 00:15:01;;;;;;;5.75;1.00;;;9.20;99.90;;;;;;5007782;28;20057;-65
2024/03/16 00:17:28;;;;;;;9.10;3.60;;;9.20;99.90;;;;;;5007009;28;20505;-67
2024/03/16 00:19:55;;;;;;;3.67;1.30;;;9.20;99.90;;;;;;5008925;28;20049;-66
2024/03/16 00:22:22;;;;;;;2.45;1.00;;;9.30;99.90;;;;;;5010641;28;20050;-65
2024/03/16 00:24:49;;;;;;;7.68;1.67;;;9.20;99.90;;;;;;5008991;28;20045;-66
2024/03/16 00:27:18;;;;;;;5.35;1.92;;;9.20;99.90;;;;;;5026364;28;20496;-66
2024/03/16 00:29:44;;;;;;;4.75;1.60;;;9.20;99.90;;;;;;5009400;28;20488;-66
2024/03/16 00:32:11;;;;;;;4.10;1.15;;;9.10;99.90;;;;;;5007843;28;20103;-65
2024/03/16 00:34:38;;;;;;;6.05;1.20;;;9.10;99.90;;;;;;5006024;28;20096;-65
2024/03/16 00:37:05;;;;;;;9.23;1.40;;;9.10;99.90;;;;;;5009957;28;20184;-65
2024/03/16 00:39:32;;;;;;;8.13;1.48;;;9.10;99.90;;;;;;5013496;28;20065;-66
2024/03/16 00:41:59;;;;;;;5.15;1.00;;;9.00;99.90;;;;;;5029286;28;20050;-67
2024/03/16 00:44:26;;;;;;;3.83;1.60;;;9.10;99.90;;;;;;5007530;28;20098;-67
2024/03/16 00:46:53;;;;;;;10.48;3.75;;;9.00;99.90;;;;;;5008592;28;20065;-66
2024/03/16 00:49:19;;;;;;;3.67;1.10;;;9.00;99.90;;;;;;5008486;28;20148;-66
2024/03/16 00:51:46;;;;;;;5.47;1.20;;;8.90;99.90;;;;;;5009278;28;20049;-67
2024/03/16 00:54:14;;;;;;;5.65;1.20;;;9.00;99.90;;;;;;5015220;28;20468;-67
2024/03/16 00:56:40;;;;;;;8.48;1.60;;;8.90;99.90;;;;;;5010875;28;20303;-66
2024/03/16 00:59:08;;;;;;;8.45;1.92;;;8.90;99.90;;;;;;5009532;28;20046;-67
2024/03/16 01:01:34;;;;;;;5.10;0.98;;;8.90;99.90;;;;;;5008733;28;20115;-67
2024/03/16 01:04:02;;;;;;;8.45;2.38;;;8.90;99.90;;;;;;5009481;28;20100;-66
2024/03/16 01:06:29;;;;;;;4.55;1.02;;;8.90;99.90;;;;;;5009455;28;20422;-66
2024/03/16 01:08:56;;;;;;;5.55;1.05;;;8.90;99.90;;;;;;5008446;28;20042;-65
2024/03/16 01:11:26;;;;;;;6.88;0.95;;;8.90;99.90;;;;;;5007299;28;20057;-66
2024/03/16 01:13:53;;;;;;;11.15;1.50;;;8.80;99.90;;;;;;5009493;28;20698;-67
2024/03/16 01:16:20;;;;;;;2.85;1.10;;;8.80;99.90;;;;;;5007989;28;20093;-66
2024/03/16 01:18:47;;;;;;;2.92;1.00;;;8.80;99.90;;;;;;5009912;28;20046;-66
2024/03/16 01:21:15;;;;;;;6.90;3.30;;;8.80;99.90;;;;;;5008463;28;20103;-66
2024/03/16 01:23:41;;;;;;;7.28;1.20;;;8.80;99.90;;;;;;5009109;28;20050;-66
2024/03/16 01:26:09;;;;;;;3.15;0.80;;;8.80;99.90;;;;;;5012628;28;20132;-66
2024/03/16 01:28:36;;;;;;;8.18;1.63;;;8.80;99.90;;;;;;5008652;28;20046;-66
2024/03/16 01:31:03;;;;;;;3.38;1.00;;;8.80;99.90;;;;;;5005041;28;20046;-66
2024/03/16 01:33:30;;;;;;;6.40;1.83;;;8.90;99.90;;;;;;5009306;28;20509;-66
2024/03/16 01:35:57;;;;;;;9.05;2.72;;;8.90;99.90;;;;;;5009916;28;20054;-66
2024/03/16 01:38:24;;;;;;;7.40;1.02;;;8.90;99.90;;;;;;5010872;28;20509;-66
2024/03/16 01:40:50;;;;;;;5.38;1.30;;;8.80;99.90;;;;;;5003339;28;20053;-66
2024/03/16 01:43:17;;;;;;;4.65;1.60;;;8.90;99.90;;;;;;5010482;28;20056;-66
2024/03/16 01:45:45;;;;;;;9.15;2.20;;;8.80;99.90;;;;;;5006443;28;20049;-66
2024/03/16 01:48:12;;;;;;;8.82;1.70;;;8.80;99.90;;;;;;5008393;28;20050;-67
2024/03/16 01:50:40;;;;;;;2.72;0.88;;;8.80;99.90;;;;;;5006865;28;20874;-67
2024/03/16 01:53:09;;;;;;;1.48;0.90;;;8.80;99.90;;;;;;5007335;28;20382;-67
2024/03/16 01:55:36;;;;;;;12.50;1.40;;;8.90;99.90;;;;;;5020957;28;20050;-67
2024/03/16 01:58:04;;;;;;;5.70;2.92;;;8.80;99.90;;;;;;5009735;28;20212;-66
2024/03/16 02:00:31;;;;;;;6.50;1.10;;;8.90;99.90;;;;;;5007528;28;20077;-66
2024/03/16 02:02:58;;;;;;;6.00;1.08;;;8.80;99.90;;;;;;5009585;28;20056;-66
2024/03/16 02:05:25;;;;;;;9.65;1.13;;;8.80;99.90;;;;;;5008215;28;20058;-67
2024/03/16 02:07:52;;;;;;;5.15;0.93;;;8.80;99.90;;;;;;5009109;28;20038;-67
2024/03/16 02:10:19;;;;;;;3.00;1.27;;;8.80;99.90;;;;;;5006262;28;20049;-67
2024/03/16 02:12:46;;;;;;;2.85;1.13;;;8.80;99.90;;;;;;5008687;28;20538;-66
2024/03/16 02:15:13;;;;;;;7.03;1.08;;;8.70;99.90;;;;;;5003785;28;20536;-67
2024/03/16 02:17:40;;;;;;;3.55;1.20;;;8.80;99.90;;;;;;5008116;28;20053;-67
2024/03/16 02:20:14;;;;;;;4.18;1.20;;;8.90;99.90;;;;;;5009057;28;20053;-67
2024/03/16 02:22:42;;;;;;;6.03;1.63;;;8.80;99.90;;;;;;5007166;28;20124;-66
2024/03/16 02:25:12;;;;;;;11.13;1.20;;;8.80;99.90;;;;;;5003724;28;20043;-66
2024/03/16 02:27:39;;;;;;;7.65;1.30;;;8.80;99.90;;;;;;5004224;28;20042;-67
2024/03/16 02:30:10;;;;;;;2.90;1.00;;;8.80;99.90;;;;;;5001052;28;20049;-67
2024/03/16 02:32:37;;;;;;;3.30;0.98;;;8.80;99.90;;;;;;5008616;28;20340;-67
2024/03/16 02:35:07;;;;;;;2.45;1.20;;;8.80;99.90;;;;;;5007562;28;20417;-66
2024/03/16 02:37:35;;;;;;;3.65;0.98;;;8.80;99.90;;;;;;5004855;28;20058;-67
2024/03/16 02:40:05;;;;;;;3.33;1.13;;;8.80;99.90;;;;;;5009769;28;20476;-67
2024/03/16 02:42:35;;;;;;;5.82;1.25;;;8.80;99.90;;;;;;5009011;28;20053;-67
2024/03/16 02:45:02;;;;;;;5.32;1.20;;;8.80;99.90;;;;;;5009372;28;20054;-66
2024/03/16 02:47:29;;;;;;;5.30;1.15;;;8.80;99.90;;;;;;5004235;28;20057;-66
2024/03/16 02:49:56;;;;;;;5.53;1.00;;;8.80;99.90;;;;;;5009830;28;20054;-65
2024/03/16 02:52:23;;;;;;;8.90;1.40;;;8.80;99.90;;;;;;5005415;28;20041;-66
2024/03/16 02:54:50;;;;;;;8.05;1.10;;;8.80;99.90;;;;;;5007003;28;20054;-66
2024/03/16 02:57:17;;;;;;;5.10;1.10;;;8.80;99.90;;;;;;5008667;28;20095;-66
2024/03/16 02:59:44;;;;;;;3.58;0.95;;;8.80;99.90;;;;;;5000060;28;20046;-65
2024/03/16 03:02:10;;;;;;;2.55;0.80;;;8.80;99.90;;;;;;5008850;28;20128;-65
2024/03/16 03:04:37;;;;;;;7.43;1.30;;;8.80;99.90;;;;;;5005213;28;20484;-66
2024/03/16 03:07:04;;;;;;;4.10;0.95;;;8.80;99.90;;;;;;5007530;28;20104;-66
2024/03/16 03:09:33;;;;;;;3.58;1.73;;;8.80;99.90;;;;;;5008809;28;20053;-66
2024/03/16 03:12:00;;;;;;;3.25;0.90;;;8.80;99.90;;;;;;5009239;28;20042;-66
2024/03/16 03:14:27;;;;;;;2.50;0.90;;;8.80;99.90;;;;;;5008676;28;20056;-66
2024/03/16 03:16:53;;;;;;;4.20;1.23;;;8.80;99.90;;;;;;5008144;28;20520;-66
2024/03/16 03:19:20;;;;;;;5.28;1.13;;;8.80;99.90;;;;;;5006288;28;20413;-66
2024/03/16 03:21:47;;;;;;;7.88;1.75;;;8.90;99.90;;;;;;5006949;28;20453;-66
2024/03/16 03:24:14;;;;;;;5.18;1.25;;;8.90;99.90;;;;;;5006323;28;20445;-66
2024/03/16 03:26:41;;;;;;;5.00;1.05;;;8.90;99.90;;;;;;5007054;28;20097;-67
2024/03/16 03:29:08;;;;;;;10.18;2.75;;;8.90;99.90;;;;;;5005906;28;20046;-66
2024/03/16 03:31:34;;;;;;;4.35;1.02;;;8.90;99.90;;;;;;5005712;28;20053;-66
2024/03/16 03:34:01;;;;;;;5.05;1.17;;;9.00;99.90;;;;;;5013708;28;20046;-66
2024/03/16 03:36:29;;;;;;;7.70;1.05;;;9.00;99.90;;;;;;5002806;28;20080;-67
2024/03/16 03:38:55;;;;;;;3.13;1.15;;;9.00;99.90;;;;;;5005268;28;20046;-66
2024/03/16 03:41:22;;;;;;;3.95;1.05;;;9.00;99.90;;;;;;5003960;28;20575;-66
2024/03/16 03:43:59;;;;;;;4.65;1.00;;;9.00;99.90;;;;;;5004415;28;20121;-66
2024/03/16 03:46:39;;;;;;;6.05;1.15;;;8.90;99.90;;;;;;5005659;28;20060;-66
2024/03/16 03:49:14;;;;;;;10.25;1.10;;;8.90;99.90;;;;;;5005826;28;20133;-66
2024/03/16 03:51:41;;;;;;;6.30;0.98;;;8.90;99.90;;;;;;5006572;28;20038;-67
2024/03/16 03:54:08;;;;;;;4.57;1.10;;;8.90;99.90;;;;;;5006742;28;20050;-66
2024/03/16 03:56:35;;;;;;;2.97;0.95;;;9.00;99.90;;;;;;5004872;28;20053;-66
2024/03/16 03:59:02;;;;;;;6.97;1.65;;;9.10;99.90;;;;;;5005692;28;20460;-66
2024/03/16 04:01:29;;;;;;;4.40;1.15;;;9.10;99.90;;;;;;5005531;28;20149;-67
2024/03/16 04:03:56;;;;;;;5.20;1.02;;;9.10;99.90;;;;;;5006931;28;20520;-66
2024/03/16 04:06:25;;;;;;;3.42;1.15;;;9.00;99.90;;;;;;5005231;28;20050;-65
2024/03/16 04:08:52;;;;;;;10.52;1.48;;;9.10;99.90;;;;;;5004495;28;20053;-66
2024/03/16 04:11:18;;;;;;;3.97;1.00;;;9.00;99.90;;;;;;5005955;28;20055;-63
2024/03/16 04:13:46;;;;;;;6.90;1.95;;;9.10;99.90;;;;;;5021188;28;20160;-66
2024/03/16 04:16:14;;;;;;;4.10;1.25;;;9.10;99.90;;;;;;5004005;28;20058;-67
2024/03/16 04:18:41;;;;;;;3.75;1.15;;;9.10;99.90;;;;;;5006833;28;20042;-66
2024/03/16 04:21:08;;;;;;;4.18;0.75;;;9.10;99.90;;;;;;5005462;28;20081;-66
2024/03/16 04:23:35;;;;;;;4.05;0.90;;;9.20;99.90;;;;;;5005239;28;20046;-66
2024/03/16 04:26:02;;;;;;;6.50;1.20;;;9.20;99.90;;;;;;5005353;28;20409;-66
2024/03/16 04:28:29;;;;;;;2.90;1.02;;;9.20;99.90;;;;;;5005633;28;20507;-66
2024/03/16 04:30:57;;;;;;;9.68;1.48;;;9.20;99.90;;;;;;5006146;28;20418;-66
2024/03/16 04:33:24;;;;;;;6.68;1.90;;;9.20;99.90;;;;;;5021809;28;20053;-66
2024/03/16 04:35:51;;;;;;;3.65;1.38;;;9.20;99.90;;;;;;5004300;28;20042;-66
2024/03/16 04:38:17;;;;;;;2.42;1.25;;;9.20;99.90;;;;;;5005877;28;20053;-65
2024/03/16 04:40:44;;;;;;;2.80;1.23;;;9.20;99.90;;;;;;5005587;28;20436;-65
2024/03/16 04:43:11;;;;;;;4.55;0.82;;;9.20;99.90;;;;;;5008270;28;20069;-66
2024/03/16 04:45:38;;;;;;;10.68;1.27;;;9.20;99.90;;;;;;5005612;28;20382;-66
2024/03/16 04:48:05;;;;;;;4.63;0.90;;;9.20;99.90;;;;;;5011099;28;20049;-66
2024/03/16 04:50:33;;;;;;;7.35;1.40;;;9.20;99.90;;;;;;5009748;28;20519;-66
2024/03/16 04:53:00;;;;;;;3.63;0.80;;;9.20;99.90;;;;;;5025610;28;20053;-67
2024/03/16 04:55:27;;;;;;;3.88;0.90;;;9.20;99.90;;;;;;5010245;28;20132;-66
2024/03/16 04:57:53;;;;;;;4.95;0.90;;;9.20;99.90;;;;;;5009895;28;20049;-66
2024/03/16 05:00:20;;;;;;;5.82;1.05;;;9.10;99.90;;;;;;5007999;28;20042;-67
2024/03/16 05:02:48;;;;;;;4.10;0.80;;;9.10;99.90;;;;;;5008565;28;20046;-66
2024/03/16 05:05:15;;;;;;;3.33;0.85;;;9.10;99.90;;;;;;5009318;28;20081;-67
2024/03/16 05:07:41;;;;;;;5.72;1.30;;;9.10;99.90;;;;;;5009550;28;20092;-65
2024/03/16 05:10:08;;;;;;;7.68;1.05;;;9.00;99.90;;;;;;5007673;28;20041;-67
2024/03/16 05:12:36;;;;;;;2.53;1.00;;;9.00;99.90;;;;;;5009803;28;20046;-65
2024/03/16 05:15:03;;;;;;;4.05;1.23;;;9.00;99.90;;;;;;5010045;28;20050;-67
2024/03/16 05:17:31;;;;;;;5.65;1.30;;;9.00;99.90;;;;;;5006442;28;20077;-65
2024/03/16 05:19:58;;;;;;;5.20;1.33;;;9.00;99.90;;;;;;5009304;28;20053;-66
2024/03/16 05:22:25;;;;;;;7.72;1.42;;;9.00;99.90;;;;;;5007057;28;20553;-67
2024/03/16 05:24:52;;;;;;;4.00;0.98;;;9.00;99.90;;;;;;5009395;28;20060;-66
2024/03/16 05:27:19;;;;;;;2.67;1.00;;;9.00;99.90;;;;;;5010614;28;20050;-67
2024/03/16 05:29:46;;;;;;;5.95;1.55;;;9.00;99.90;;;;;;5012265;28;20042;-67
2024/03/16 05:32:13;;;;;;;4.95;1.23;;;8.90;99.90;;;;;;5012218;28;20050;-66
2024/03/16 05:34:39;;;;;;;4.90;1.70;;;8.90;99.90;;;;;;5010859;28;20053;-66
2024/03/16 05:37:06;;;;;;;2.88;1.25;;;8.90;99.90;;;;;;5008342;28;20132;-67
2024/03/16 05:39:33;;;;;;;3.95;1.20;;;8.90;99.90;;;;;;5007925;28;20049;-66
2024/03/16 05:42:00;;;;;;;2.67;1.27;;;8.80;99.90;;;;;;5006190;28;20085;-65
2024/03/16 05:44:27;;;;;;;4.30;1.83;;;8.80;99.90;;;;;;5009489;28;20038;-66
2024/03/16 05:46:54;;;;;;;6.50;0.95;;;8.80;99.90;;;;;;5000222;28;20116;-67
2024/03/16 05:49:21;;;;;;;4.10;0.77;;;8.90;99.90;;;;;;5009247;28;20176;-66
2024/03/16 05:51:50;;;;;;;5.05;1.30;;;8.70;99.90;;;;;;5006165;28;20052;-66
2024/03/16 05:54:17;;;;;;;5.05;0.90;;;8.70;99.90;;;;;;5005147;28;20052;-66
2024/03/16 05:56:44;;;;;;;10.40;1.45;;;8.70;99.90;;;;;;5006218;28;20046;-66
2024/03/16 05:59:11;;;;;;;5.05;1.55;;;8.70;99.90;;;;;;5008554;28;20100;-66
2024/03/16 06:01:38;;;;;;;4.10;1.17;;;8.70;99.90;;;;;;5003417;28;20052;-66
2024/03/16 06:04:05;;;;;;;8.82;1.45;;;8.70;99.90;;;;;;5014403;28;20041;-66
2024/03/16 06:06:32;;;;;;;2.03;0.90;;;8.60;99.90;;;;;;4999160;28;20141;-66
2024/03/16 06:08:59;;;;;;;8.43;1.73;;;8.60;99.90;;;;;;5013617;28;20069;-66
2024/03/16 06:11:26;;;;;;;6.93;1.20;;;8.60;99.90;;;;;;5008715;28;20109;-67
2024/03/16 06:13:53;;;;;;;7.65;1.40;;;8.60;99.90;;;;;;5011158;28;20092;-66
2024/03/16 06:16:21;;;;;;;3.55;1.00;;;8.60;99.90;;;;;;5015761;28;20050;-66
2024/03/16 06:18:48;;;;;;;6.32;1.17;;;8.60;99.90;;;;;;5014174;28;20049;-66
2024/03/16 06:21:15;;;;;;;4.30;1.52;;;8.60;99.90;;;;;;5008578;28;20092;-66
2024/03/16 06:23:42;;;;;;;11.52;2.65;;;8.60;99.90;;;;;;5009105;28;20116;-66
2024/03/16 06:26:16;;;;;;;1.45;1.08;;;8.60;99.90;;;;;;5008767;28;20282;-65
2024/03/16 06:28:47;;;;;;;2.78;0.82;;;8.60;99.90;;;;;;5008805;28;20053;-66
2024/03/16 06:31:14;;;;;;;2.92;1.00;;;8.60;99.90;;;;;;5011254;28;20103;-66
2024/03/16 06:33:45;;;;;;;1.65;1.20;;;8.60;99.90;;;;;;5008543;28;20052;-65
2024/03/16 06:36:12;;;;;;;3.35;0.90;;;8.70;99.90;;;;;;5010255;28;20042;-65
2024/03/16 06:38:39;;;;;;;5.15;1.30;;;8.70;99.90;;;;;;5007620;28;20599;-66
2024/03/16 06:41:06;;;;;;;5.28;1.13;;;8.70;99.90;;;;;;5008422;28;20092;-65
2024/03/16 06:43:33;;;;;;;4.38;1.02;;;8.70;99.90;;;;;;5007897;28;20049;-65
2024/03/16 06:46:00;;;;;;;4.10;1.45;;;8.70;99.90;;;;;;4999706;28;20073;-65
2024/03/16 06:48:28;;;;;;;3.75;1.23;;;8.70;99.90;;;;;;4998938;28;20168;-65
2024/03/16 06:50:54;;;;;;;2.65;0.98;;;8.60;99.90;;;;;;5005983;28;20050;-67
2024/03/16 06:53:21;;;;;;;3.75;1.63;;;8.70;99.90;;;;;;5008783;28;20050;-67
2024/03/16 06:55:50;;;;;;;6.18;1.58;;;8.70;99.90;;;;;;5008552;28;20054;-67
2024/03/16 06:58:17;;;;;;;2.55;1.00;;;8.70;99.90;;;;;;5007701;28;20056;-66
2024/03/16 07:00:44;;;;;;;6.65;1.23;;;8.70;99.90;;;;;;5007355;28;20106;-67
2024/03/16 07:03:11;;;;;;;7.53;1.20;;;8.70;99.90;;;;;;5023202;28;20054;-66
2024/03/16 07:05:38;;;;;;;3.42;1.38;;;8.50;99.90;;;;;;4999478;28;20097;-67
2024/03/16 07:08:09;;;;;;;4.85;0.93;;;8.60;99.90;;;;;;4995832;28;20050;-67
2024/03/16 07:10:39;;;;;;;3.88;0.90;;;8.60;99.90;;;;;;5002166;28;20053;-67
2024/03/16 07:13:06;;;;;;;4.93;1.23;;;8.70;99.90;;;;;;5015804;28;20057;-66
2024/03/16 07:15:34;;;;;;;3.17;1.00;;;8.70;99.90;;;;;;5005750;28;20527;-67
2024/03/16 07:18:01;;;;;;;3.03;0.93;;;8.70;99.90;;;;;;5006551;28;20143;-65
2024/03/16 07:20:28;;;;;;;3.47;1.00;;;8.70;99.90;;;;;;5004787;28;20042;-65
2024/03/16 07:22:55;;;;;;;3.42;0.95;;;8.80;99.90;;;;;;5007991;28;20053;-66
2024/03/16 07:25:22;;;;;;;4.28;0.95;;;8.60;99.90;;;;;;5005392;28;20046;-65
2024/03/16 07:27:49;;;;;;;6.25;1.05;;;8.90;99.90;;;;;;5007146;28;20050;-66
2024/03/16 07:30:18;;;;;;;3.90;0.95;;;8.90;99.90;;;;;;5008455;28;20453;-66
2024/03/16 07:32:46;;;;;;;3.15;1.20;;;8.90;99.90;;;;;;5007364;28;20096;-66
2024/03/16 07:35:13;;;;;;;5.93;1.30;;;9.00;99.90;;;;;;5005656;28;20527;-66
2024/03/16 07:37:40;;;;;;;3.50;1.35;;;8.90;99.90;;;;;;5004719;28;20158;-66
2024/03/16 07:40:13;;;;;;;7.72;1.60;;;8.90;99.90;;;;;;5005250;28;20045;-66
2024/03/16 07:42:41;;;;;;;9.30;1.45;;;8.90;99.90;;;;;;5019144;28;20050;-67
2024/03/16 07:45:09;;;;;;;10.80;1.40;;;9.00;99.90;;;;;;5006220;28;20048;-68
2024/03/16 07:47:36;;;;;;;4.65;1.08;;;9.10;99.90;;;;;;5020467;28;20108;-68
2024/03/16 07:50:05;;;;;;;11.13;1.70;;;9.10;99.90;;;;;;5005751;28;20576;-65
2024/03/16 07:52:33;;;;;;;9.57;1.35;;;9.10;99.90;;;;;;5002418;28;20058;-66
2024/03/16 07:55:00;;;;;;;5.55;1.48;;;9.10;99.90;;;;;;5008337;28;20050;-66
2024/03/16 07:57:31;;;;;;;5.53;1.40;;;9.00;99.90;;;;;;5005037;28;20147;-66
2024/03/16 07:59:57;;;;;;;2.42;1.10;;;9.00;99.90;;;;;;5004201;28;20129;-66
2024/03/16 08:02:24;;;;;;;3.75;1.08;;;9.00;99.90;;;;;;5002719;28;20061;-67
2024/03/16 08:04:51;;;;;;;4.45;1.23;;;9.00;99.90;;;;;;4659263;28;10000605;-66
2024/03/16 08:07:18;;;;;;;5.22;1.20;;;9.00;99.90;;;;;;5003451;28;20061;-66
2024/03/16 08:09:44;;;;;;;4.28;1.10;;;9.10;99.90;;;;;;5002575;28;20260;-67
2024/03/16 08:12:11;;;;;;;6.65;1.50;;;9.10;99.90;;;;;;5000566;28;20046;-68
2024/03/16 08:14:38;;;;;;;5.28;1.45;;;9.20;99.90;;;;;;5004015;28;20089;-67
2024/03/16 08:17:05;;;;;;;5.10;1.50;;;9.20;99.90;;;;;;5002277;28;20042;-67
2024/03/16 08:19:32;;;;;;;8.68;1.63;;;9.30;99.90;;;;;;5007395;28;20339;-68
2024/03/16 08:21:59;;;;;;;6.35;1.50;;;9.30;99.90;;;;;;5002455;28;20054;-67
2024/03/16 08:24:26;;;;;;;4.30;1.00;;;9.30;99.90;;;;;;5004064;28;20053;-68
2024/03/16 08:26:53;;;;;;;8.95;2.40;;;9.40;99.90;;;;;;5004896;28;20042;-67
2024/03/16 08:29:20;;;;;;;3.92;1.58;;;9.40;99.90;;;;;;5004935;28;20050;-67
2024/03/16 08:31:46;;;;;;;7.40;1.50;;;9.40;99.90;;;;;;5006650;28;20054;-67
2024/03/16 08:34:13;;;;;;;4.75;1.77;;;9.50;99.90;;;;;;5003102;28;20050;-67
2024/03/16 08:36:40;;;;;;;4.13;1.50;;;9.50;99.90;;;;;;5008000;28;20073;-68
2024/03/16 08:39:08;;;;;;;5.20;1.75;;;9.50;99.90;;;;;;5004595;28;20129;-68
2024/03/16 08:41:36;;;;;;;5.40;1.52;;;9.50;99.90;;;;;;5003978;28;20081;-66
2024/03/16 08:44:04;;;;;;;5.25;1.65;;;9.50;99.90;;;;;;5003646;28;20119;-67
2024/03/16 08:46:31;;;;;;;10.10;1.85;;;9.70;99.90;;;;;;5007944;28;20056;-65
2024/03/16 08:48:59;;;;;;;6.82;2.00;;;9.80;99.90;;;;;;5004092;28;20048;-69
2024/03/16 08:51:26;;;;;;;7.47;1.67;;;9.90;99.90;;;;;;5006998;28;20073;-66
2024/03/16 08:53:53;;;;;;;6.50;1.80;;;10.00;99.90;;;;;;5018709;28;20373;-67
2024/03/16 08:56:20;;;;;;;7.75;2.38;;;10.10;99.90;;;;;;5005732;28;20057;-67
2024/03/16 08:58:48;;;;;;;4.30;2.05;;;10.20;99.90;;;;;;5003617;28;20072;-67
2024/03/16 09:01:15;;;;;;;9.95;2.08;;;10.30;99.90;;;;;;5006325;28;20133;-68
2024/03/16 09:03:43;;;;;;;6.65;2.58;;;10.30;99.90;;;;;;5003497;28;20238;-67
2024/03/16 09:06:11;;;;;;;3.85;2.22;;;10.20;99.90;;;;;;5004416;28;20074;-68
2024/03/16 09:08:38;;;;;;;5.20;2.85;;;10.30;99.90;;;;;;5001085;28;20566;-68
2024/03/16 09:11:05;;;;;;;9.15;2.63;;;10.30;99.90;;;;;;5000925;28;20448;-68
2024/03/16 09:13:33;;;;;;;6.57;2.10;;;10.30;99.90;;;;;;5007052;28;20057;-67
2024/03/16 09:16:05;;;;;;;5.88;2.00;;;10.50;99.90;;;;;;5020719;28;20401;-67
2024/03/16 09:18:33;;;;;;;4.57;2.17;;;10.80;99.90;;;;;;5005448;28;20054;-68
2024/03/16 09:21:05;;;;;;;3.88;2.10;;;11.10;99.90;;;;;;5001821;28;20052;-68
2024/03/16 09:23:32;;;;;;;7.85;2.58;;;11.10;99.90;;;;;;5005329;28;20077;-68
2024/03/16 09:26:01;;;;;;;10.10;2.78;;;11.20;99.90;;;;;;5004970;28;20049;-67
2024/03/16 09:28:27;;;;;;;5.60;2.40;;;11.40;99.90;;;;;;5009874;28;20084;-66
2024/03/16 09:30:55;;;;;;;2.58;2.28;;;11.70;99.90;;;;;;5003378;28;20074;-67
2024/03/16 09:33:23;;;;;;;5.20;2.53;;;12.20;99.90;;;;;;5006403;28;20568;-66
2024/03/16 09:35:52;;;;;;;4.82;2.53;;;12.50;99.90;;;;;;5005473;28;20076;-67
2024/03/16 09:38:19;;;;;;;12.80;2.97;;;12.80;99.90;;;;;;5002279;28;20504;-67
2024/03/16 09:40:52;;;;;;;8.20;2.50;;;13.10;99.90;;;;;;5022483;28;20424;-67
2024/03/16 09:43:19;;;;;;;12.52;1.90;;;13.20;99.90;;;;;;5004284;28;20054;-67
2024/03/16 09:45:45;;;;;;;4.65;2.38;;;13.10;99.90;;;;;;5004775;28;20053;-68
2024/03/16 09:48:12;;;;;;;4.85;2.25;;;13.00;99.90;;;;;;4970860;28;20061;-68
2024/03/16 09:50:47;;;;;;;12.23;2.80;;;12.80;99.90;;;;;;4992537;28;20050;-68
2024/03/16 09:53:31;;;;;;;6.72;3.53;;;12.50;99.90;;;;;;4998672;28;20054;-66
2024/03/16 09:56:04;;;;;;;13.60;2.67;;;12.20;99.90;;;;;;5004114;28;20053;-68
2024/03/16 09:58:32;;;;;;;7.05;2.25;;;12.30;99.90;;;;;;4996250;28;20087;-68
2024/03/16 10:01:00;;;;;;;7.85;2.63;;;12.20;99.90;;;;;;5020697;28;20053;-67
2024/03/16 10:03:27;;;;;;;4.85;2.15;;;12.20;99.90;;;;;;5006410;28;20058;-68
2024/03/16 10:05:52;;;;;;;12.70;4.93;;;12.00;99.90;;;;;;4986160;28;20116;-68
2024/03/16 10:08:20;;;;;;;5.50;2.63;;;11.80;99.90;;;;;;5021848;28;20042;-68
2024/03/16 10:10:50;;;;;;;9.35;2.33;;;11.70;99.90;;;;;;5001197;28;20496;-68
2024/03/16 10:13:17;;;;;;;3.53;1.80;;;11.80;99.90;;;;;;5006185;28;20050;-68
2024/03/16 10:15:46;;;;;;;7.47;2.25;;;12.00;99.90;;;;;;4980967;28;20049;-66
2024/03/16 10:18:16;;;;;;;5.30;2.33;;;11.90;99.90;;;;;;4997328;28;20286;-66
2024/03/16 10:20:46;;;;;;;8.45;1.90;;;11.90;99.90;;;;;;5001726;28;20053;-67
2024/03/16 10:23:15;;;;;;;5.53;1.85;;;12.00;99.90;;;;;;4991834;28;20421;-67
2024/03/16 10:25:47;;;;;;;6.47;2.40;;;12.10;99.90;;;;;;4999462;28;20046;-69
2024/03/16 10:28:16;;;;;;;6.07;1.80;;;12.20;99.90;;;;;;4995026;28;20062;-69
2024/03/16 10:30:43;;;;;;;5.90;2.08;;;12.40;99.90;;;;;;5000199;28;20104;-73
2024/03/16 10:33:09;;;;;;;9.68;2.40;;;12.40;99.90;;;;;;5007736;28;20388;-69
2024/03/16 10:35:34;;;;;;;9.27;1.45;;;12.50;99.90;;;;;;4995842;28;20050;-67
2024/03/16 10:38:03;;;;;;;6.97;1.17;;;12.50;99.90;;;;;;5003377;28;20049;-70
2024/03/16 10:40:30;;;;;;;3.38;1.20;;;12.40;99.90;;;;;;5000919;28;20471;-69
2024/03/16 10:42:58;;;;;;;4.05;1.67;;;12.40;99.90;;;;;;5002944;28;20061;-69
2024/03/16 10:45:26;;;;;;;4.07;1.73;;;12.40;99.90;;;;;;4988876;28;20046;-68
2024/03/16 10:47:55;;;;;;;9.00;1.65;;;12.40;99.90;;;;;;5003962;28;20608;-67
2024/03/16 10:50:24;;;;;;;1.60;0.82;;;12.40;99.90;;;;;;5020014;28;20697;-68
2024/03/16 10:52:51;;;;;;;4.68;1.10;;;12.20;99.90;;;;;;4998729;28;20424;-67
2024/03/16 10:55:24;;;;;;;6.03;1.88;;;12.10;99.90;;;;;;5003180;28;20053;-68
2024/03/16 10:57:50;;;;;;;5.63;1.40;;;12.00;99.90;;;;;;4968017;28;20047;-70
2024/03/16 11:00:26;;;;;;;4.53;1.13;;;12.00;99.90;;;;;;4997048;28;20288;-70
2024/03/16 11:03:01;;;;;;;5.43;1.23;;;12.10;99.90;;;;;;5001589;28;20512;-68
2024/03/16 11:05:37;;;;;;;6.25;1.30;;;12.00;99.90;;;;;;5002455;28;20111;-69
2024/03/16 11:08:36;;;;;;;6.43;1.83;;;12.10;99.90;;;;;;4998215;28;20355;-69
2024/03/16 11:11:08;;;;;;;6.05;2.17;;;12.10;99.90;;;;;;4974519;28;20053;-69
2024/03/16 11:13:33;;;;;;;8.48;1.48;;;12.10;99.90;;;;;;5010650;28;20058;-68
2024/03/16 11:16:00;;;;;;;5.15;1.75;;;12.20;99.90;;;;;;5001485;28;20049;-69
2024/03/16 11:18:28;;;;;;;3.70;1.02;;;12.20;99.90;;;;;;5001752;28;20054;-68
2024/03/16 11:20:56;;;;;;;2.03;0.80;;;12.20;99.90;;;;;;5003146;28;20045;-69
2024/03/16 11:23:27;;;;;;;2.85;1.40;;;12.40;99.90;;;;;;4983758;28;20053;-68
2024/03/16 11:25:53;;;;;;;3.35;0.90;;;12.60;99.90;;;;;;5000205;28;20065;-67
2024/03/16 11:28:19;;;;;;;4.25;1.38;;;12.80;99.90;;;;;;4983084;28;20053;-67
2024/03/16 11:30:50;;;;;;;3.58;1.20;;;12.80;99.90;;;;;;5002343;28;20137;-69
2024/03/16 11:33:22;;;;;;;6.78;1.38;;;12.90;99.90;;;;;;4999443;28;20058;-67
2024/03/16 11:35:50;;;;;;;5.20;1.15;;;13.10;99.90;;;;;;5001017;28;20065;-69
2024/03/16 11:38:16;;;;;;;3.85;1.15;;;13.20;99.90;;;;;;4985016;28;20108;-69
2024/03/16 11:40:48;;;;;;;2.90;0.90;;;13.20;99.90;;;;;;5015465;28;20057;-68
2024/03/16 11:43:14;;;;;;;3.33;1.38;;;13.20;99.90;;;;;;4997386;28;20054;-70
2024/03/16 11:45:40;;;;;;;4.20;1.15;;;13.20;99.90;;;;;;5001685;28;20435;-68
2024/03/16 11:48:07;;;;;;;3.10;1.27;;;13.20;99.90;;;;;;4999345;28;20558;-68
2024/03/16 11:50:34;;;;;;;5.80;1.10;;;13.40;99.90;;;;;;4997624;28;20061;-68
2024/03/16 11:53:01;;;;;;;3.00;0.90;;;13.40;99.90;;;;;;4998055;28;20497;-69
2024/03/16 11:55:32;;;;;;;11.30;1.33;;;13.30;99.90;;;;;;4998082;28;20050;-69
2024/03/16 11:58:09;;;;;;;6.10;1.20;;;13.40;99.90;;;;;;5000706;28;20378;-69
2024/03/16 12:00:35;;;;;;;3.05;0.95;;;13.60;99.90;;;;;;5000126;28;20517;-69
2024/03/16 12:03:06;;;;;;;3.35;0.65;;;13.70;99.90;;;;;;5001915;28;20046;-69
2024/03/16 12:05:34;;;;;;;2.65;1.00;;;13.70;99.90;;;;;;5000451;28;20101;-68
2024/03/16 12:08:04;;;;;;;2.80;0.95;;;13.70;99.90;;;;;;5001426;28;20054;-68
2024/03/16 12:10:33;;;;;;;2.95;1.02;;;13.80;99.90;;;;;;5017387;28;20083;-68
2024/03/16 12:13:00;;;;;;;3.70;1.30;;;13.80;99.90;;;;;;4998685;28;20058;-67
2024/03/16 12:15:27;;;;;;;3.78;1.40;;;13.80;99.90;;;;;;4993551;28;20505;-67
2024/03/16 12:18:09;;;;;;;3.10;0.70;;;13.80;99.90;;;;;;4996601;28;20528;-68
2024/03/16 12:20:37;;;;;;;6.50;1.02;;;13.80;99.90;;;;;;5003571;28;20060;-68
2024/03/16 12:23:03;;;;;;;2.78;0.90;;;13.90;99.90;;;;;;4999209;28;20049;-69
2024/03/16 12:25:42;;;;;;;2.78;1.00;;;13.80;99.90;;;;;;4986652;28;20054;-69
2024/03/16 12:28:08;;;;;;;3.28;1.02;;;13.80;99.90;;;;;;4997845;28;20077;-67
2024/03/16 12:30:34;;;;;;;3.60;1.17;;;14.00;99.90;;;;;;5004452;28;20053;-68
2024/03/16 12:33:00;;;;;;;2.17;0.80;;;14.00;99.90;;;;;;4996047;28;20058;-68
2024/03/16 12:35:31;;;;;;;3.55;1.05;;;14.20;99.90;;;;;;4996249;28;20085;-68
2024/03/16 12:37:58;;;;;;;3.88;1.33;;;14.10;99.90;;;;;;5005267;28;20077;-68
2024/03/16 12:40:24;;;;;;;6.47;1.88;;;14.20;99.90;;;;;;4994160;28;20080;-68
2024/03/16 12:42:51;;;;;;;6.55;2.30;;;14.20;99.90;;;;;;5000732;28;20081;-68
2024/03/16 12:45:17;;;;;;;3.65;1.20;;;14.20;99.90;;;;;;5016693;28;20053;-68
2024/03/16 12:47:42;;;;;;;5.43;1.63;;;14.30;99.90;;;;;;4998540;28;20457;-70
2024/03/16 12:50:08;;;;;;;2.72;1.00;;;14.40;99.90;;;;;;4997162;28;20148;-67
2024/03/16 12:52:34;;;;;;;5.97;1.67;;;14.50;99.90;;;;;;5000052;28;20180;-68
2024/03/16 12:55:03;;;;;;;1.77;0.93;;;14.60;99.90;;;;;;5017242;28;20098;-67